TimeMST,TemperatureF,Dew PointF,Humidity,Sea Level PressureIn,VisibilityMPH,Wind Direction,Wind SpeedMPH,Gust SpeedMPH,PrecipitationIn,Events,Conditions,WindDirDegrees,DateUTC
12:54 AM,36.0,28.0,73,29.70,10.0,SE,4.6,-,N/A,,Clear,130,2012-11-18 07:54:00
1:54 AM,34.0,27.0,75,29.68,10.0,East,8.1,-,N/A,,Clear,100,2012-11-18 08:54:00
2:54 AM,37.9,28.9,70,29.67,10.0,East,4.6,-,N/A,,Mostly Cloudy,100,2012-11-18 09:54:00
3:54 AM,42.1,28.9,60,29.64,10.0,SSE,6.9,-,N/A,,Clear,150,2012-11-18 10:54:00
5:54 AM,43.0,30.0,60,29.66,10.0,SW,9.2,-,N/A,,Clear,230,2012-11-18 12:54:00
6:54 AM,44.1,30.9,60,29.65,10.0,SW,12.7,-,N/A,,Clear,220,2012-11-18 13:54:00
7:54 AM,46.9,30.0,52,29.66,10.0,WNW,5.8,-,N/A,,Clear,300,2012-11-18 14:54:00
8:54 AM,46.0,33.1,61,29.70,10.0,WSW,15.0,-,N/A,,Clear,240,2012-11-18 15:54:00
9:54 AM,46.9,33.1,59,29.77,10.0,West,12.7,21.9,N/A,,Mostly Cloudy,280,2012-11-18 16:54:00
10:01 AM,46.4,33.8,62,29.75,10.0,NW,12.7,-,N/A,,Overcast,310,2012-11-18 17:01:00
10:54 AM,46.9,33.1,59,29.79,10.0,NW,12.7,-,N/A,,Clear,310,2012-11-18 17:54:00
11:54 AM,50.0,27.0,41,29.81,10.0,WNW,18.4,27.6,N/A,,Scattered Clouds,300,2012-11-18 18:54:00
12:54 PM,48.9,21.0,33,29.83,10.0,West,20.7,28.8,N/A,,Clear,280,2012-11-18 19:54:00
1:54 PM,46.0,14.0,28,29.87,10.0,WNW,18.4,25.3,N/A,,Partly Cloudy,300,2012-11-18 20:54:00
2:54 PM,43.0,19.0,38,29.89,10.0,NW,9.2,-,N/A,,Clear,320,2012-11-18 21:54:00
3:54 PM,41.0,18.0,40,29.90,10.0,WNW,10.4,-,N/A,,Clear,290,2012-11-18 22:54:00
4:54 PM,36.0,18.0,48,29.95,10.0,West,5.8,-,N/A,,Clear,270,2012-11-18 23:54:00
5:54 PM,36.0,18.0,48,29.96,10.0,West,6.9,-,N/A,,Mostly Cloudy,280,2012-11-19 00:54:00
6:54 PM,34.0,19.9,56,29.98,10.0,SSW,12.7,-,N/A,,Clear,210,2012-11-19 01:54:00
7:54 PM,36.0,18.0,48,29.98,10.0,SW,10.4,-,N/A,,Clear,230,2012-11-19 02:54:00
8:54 PM,36.0,18.0,48,29.99,10.0,SW,11.5,-,N/A,,Clear,220,2012-11-19 03:54:00
10:54 PM,34.0,18.0,52,30.00,10.0,SSW,6.9,-,N/A,,Clear,210,2012-11-19 05:54:00
11:54 PM,33.1,16.0,50,30.01,10.0,East,3.5,-,N/A,,Clear,100,2012-11-19 06:54:00